createdAt,value
2019-04-14T00:00:55.364Z,60.60
2019-04-14T00:03:26.081Z,60.30
2019-04-14T00:05:56.335Z,60.50
2019-04-14T00:08:24.745Z,60.70
2019-04-14T00:10:53.136Z,60.80
2019-04-14T00:13:21.778Z,61.10
2019-04-14T00:15:51.949Z,61.20
2019-04-14T00:18:20.835Z,61.50
2019-04-14T00:20:49.344Z,61.40
2019-04-14T00:23:19.499Z,61.30
2019-04-14T00:25:48.144Z,61.10
2019-04-14T00:28:16.511Z,61.20
2019-04-14T00:30:44.937Z,61.00
2019-04-14T00:33:28.038Z,61.40
2019-04-14T00:36:04.499Z,61.60
2019-04-14T00:38:41.253Z,61.80
2019-04-14T00:41:17.998Z,61.80
2019-04-14T00:43:54.920Z,62.00
2019-04-14T00:46:40.947Z,61.70
2019-04-14T00:49:09.538Z,62.60
2019-04-14T00:51:39.375Z,63.00
2019-04-14T00:54:08.747Z,62.90
2019-04-14T00:56:36.891Z,63.20
2019-04-14T00:59:05.328Z,63.20
2019-04-14T01:01:33.737Z,63.50
2019-04-14T01:04:03.383Z,63.40
2019-04-14T01:06:31.903Z,63.80
2019-04-14T01:09:00.313Z,63.10
2019-04-14T01:11:29.161Z,63.30
2019-04-14T01:13:57.815Z,63.10
2019-04-14T01:16:27.047Z,63.20
2019-04-14T01:18:56.209Z,63.30
2019-04-14T01:21:24.594Z,64.30
2019-04-14T01:23:52.962Z,64.10
2019-04-14T01:26:22.449Z,64.40
2019-04-14T01:28:50.946Z,64.20
2019-04-14T01:31:20.542Z,64.40
2019-04-14T01:33:49.139Z,64.10
2019-04-14T01:36:17.564Z,63.70
2019-04-14T01:38:47.031Z,63.80
2019-04-14T01:41:15.536Z,64.10
2019-04-14T01:43:45.166Z,64.20
2019-04-14T01:46:19.701Z,64.30
2019-04-14T01:48:43.962Z,64.50
2019-04-14T01:51:14.001Z,64.40
2019-04-14T01:53:50.967Z,64.90
2019-04-14T01:56:38.377Z,64.70
2019-04-14T01:59:08.784Z,64.30
2019-04-14T02:01:45.691Z,64.30
2019-04-14T02:04:14.216Z,64.50
2019-04-14T02:06:42.617Z,64.70
2019-04-14T02:09:12.031Z,64.50
2019-04-14T02:11:40.598Z,65.10
2019-04-14T02:14:10.307Z,65.10
2019-04-14T02:16:44.438Z,65.40
2019-04-14T02:19:08.944Z,65.40
2019-04-14T02:21:38.762Z,66.00
2019-04-14T02:24:07.339Z,66.40
2019-04-14T02:26:35.750Z,65.90
2019-04-14T02:29:04.129Z,65.90
2019-04-14T02:32:01.433Z,65.30
2019-04-14T02:34:34.664Z,65.30
2019-04-14T02:37:08.368Z,65.90
2019-04-14T02:39:38.593Z,65.90
2019-04-14T02:47:09.846Z,67.50
2019-04-14T02:49:36.706Z,67.70
2019-04-14T02:52:04.317Z,67.80
2019-04-14T02:54:51.863Z,67.90
2019-04-14T02:57:04.529Z,67.60
2019-04-14T02:59:27.103Z,67.70
2019-04-14T03:02:19.585Z,67.40
2019-04-14T03:07:05.375Z,68.20
2019-04-14T03:12:07.134Z,69.00
2019-04-14T03:19:59.072Z,69.10
2019-04-14T03:24:43.995Z,68.70
2019-04-14T03:27:30.528Z,69.50
2019-04-14T03:30:16.542Z,69.40
2019-04-14T03:33:00.509Z,69.40
2019-04-14T03:35:19.715Z,69.80
2019-04-14T03:37:46.378Z,70.50
2019-04-14T03:40:01.206Z,71.00
2019-04-14T03:42:35.840Z,71.10
2019-04-14T03:45:07.496Z,70.10
2019-04-14T03:47:31.498Z,70.30
2019-04-14T03:50:17.267Z,70.00
2019-04-14T03:52:49.749Z,70.40
2019-04-14T03:54:51.668Z,70.40
2019-04-14T03:57:06.191Z,69.60
2019-04-14T03:59:34.880Z,68.90
2019-04-14T04:02:03.532Z,67.60
2019-04-14T04:04:31.907Z,66.80
2019-04-14T04:07:00.314Z,66.40
2019-04-14T04:09:30.361Z,65.90
2019-04-14T04:11:58.733Z,64.80
2019-04-14T04:14:27.185Z,64.30
2019-04-14T04:17:06.429Z,65.10
2019-04-14T04:19:38.614Z,63.80
2019-04-14T04:22:15.036Z,63.50
2019-04-14T04:24:47.930Z,63.80
2019-04-14T04:27:18.019Z,62.50
2019-04-14T04:29:51.004Z,62.80
2019-04-14T04:32:21.058Z,63.10
2019-04-14T04:35:08.474Z,61.80
2019-04-14T04:37:39.027Z,61.60
2019-04-14T04:40:09.419Z,60.80
2019-04-14T04:42:37.899Z,59.40
2019-04-14T04:45:06.605Z,58.20
2019-04-14T04:47:36.166Z,57.80
2019-04-14T04:50:06.542Z,57.60
2019-04-14T04:52:35.029Z,56.90
2019-04-14T04:55:04.520Z,56.20
2019-04-14T04:57:33.064Z,55.50
2019-04-14T05:00:02.853Z,55.10
2019-04-14T05:02:31.521Z,52.50
2019-04-14T05:05:01.213Z,51.30
2019-04-14T05:07:29.880Z,51.10
2019-04-14T05:10:00.178Z,50.10
2019-04-14T05:12:30.627Z,47.80
2019-04-14T05:15:00.981Z,46.60
2019-04-14T05:17:34.382Z,46.70
2019-04-14T05:20:03.267Z,48.20
2019-04-14T05:22:31.781Z,51.30
2019-04-14T05:25:01.355Z,49.40
2019-04-14T05:27:29.873Z,50.50
2019-04-14T05:29:58.190Z,50.30
2019-04-14T05:32:26.554Z,50.50
2019-04-14T05:34:54.959Z,50.60
2019-04-14T05:37:23.334Z,51.30
2019-04-14T05:39:52.678Z,51.70
2019-04-14T05:42:25.154Z,54.10
2019-04-14T05:44:51.577Z,55.10
2019-04-14T05:47:20.117Z,55.30
2019-04-14T05:49:52.712Z,55.90
2019-04-14T05:52:18.583Z,56.70
2019-04-14T05:54:47.146Z,57.40
2019-04-14T05:57:15.625Z,58.10
2019-04-14T05:59:44.157Z,58.00
2019-04-14T06:02:13.476Z,58.30
2019-04-14T06:04:42.056Z,58.00
2019-04-14T06:07:10.460Z,57.90
2019-04-14T06:09:38.866Z,58.20
2019-04-14T06:12:07.229Z,57.90
2019-04-14T06:14:35.628Z,57.50
2019-04-14T06:17:04.039Z,58.00
2019-04-14T06:19:37.935Z,58.40
2019-04-14T06:22:02.571Z,58.30
2019-04-14T06:24:30.935Z,58.10
2019-04-14T06:26:59.430Z,57.90
2019-04-14T06:29:27.876Z,57.20
2019-04-14T06:32:03.589Z,56.00
2019-04-14T06:34:33.647Z,55.90
2019-04-14T06:37:03.691Z,55.90
2019-04-14T06:39:33.767Z,55.80
2019-04-14T06:42:02.130Z,56.40
2019-04-14T06:44:30.545Z,56.90
2019-04-14T06:46:59.008Z,57.10
2019-04-14T06:49:27.374Z,57.80
2019-04-14T06:51:55.911Z,57.40
2019-04-14T06:54:24.265Z,57.60
2019-04-14T06:56:52.690Z,57.20
2019-04-14T06:59:21.094Z,55.60
2019-04-14T07:01:49.494Z,54.40
2019-04-14T07:04:17.986Z,55.70
2019-04-14T07:06:46.369Z,56.30
2019-04-14T07:09:14.820Z,56.30
2019-04-14T07:11:43.220Z,55.50
2019-04-14T07:14:11.623Z,55.60
2019-04-14T07:16:40.000Z,55.70
2019-04-14T07:19:08.431Z,55.30
2019-04-14T07:21:36.816Z,54.00
2019-04-14T07:24:05.209Z,53.30
2019-04-14T07:26:33.578Z,53.70
2019-04-14T07:29:01.958Z,54.20
2019-04-14T07:31:48.401Z,53.50
2019-04-14T07:34:20.884Z,53.80
2019-04-14T07:36:50.910Z,53.30
2019-04-14T07:39:35.983Z,51.40
2019-04-14T07:42:15.251Z,50.60
2019-04-14T07:44:51.420Z,50.10
2019-04-14T07:47:37.975Z,48.70
2019-04-14T07:50:14.473Z,49.20
2019-04-14T07:52:55.063Z,48.80
2019-04-14T07:55:31.099Z,48.70
2019-04-14T07:58:07.491Z,47.90
2019-04-14T08:00:40.608Z,46.60
2019-04-14T08:03:22.900Z,43.20
2019-04-14T08:05:51.273Z,41.20
2019-04-14T08:08:19.714Z,42.70
2019-04-14T08:10:48.083Z,39.80
2019-04-14T08:13:16.484Z,37.70
2019-04-14T08:15:44.864Z,33.50
2019-04-14T08:18:13.324Z,35.20
2019-04-14T08:20:41.757Z,35.20
2019-04-14T08:23:10.116Z,33.10
2019-04-14T08:25:38.505Z,31.30
2019-04-14T08:28:06.923Z,30.70
2019-04-14T08:30:35.331Z,29.30
2019-04-14T08:33:03.777Z,28.60
2019-04-14T08:35:32.181Z,29.60
2019-04-14T08:38:00.601Z,31.30
2019-04-14T08:40:29.017Z,31.20
2019-04-14T08:42:59.022Z,29.50
2019-04-14T08:45:29.047Z,29.90
2019-04-14T08:48:11.062Z,30.30
2019-04-14T08:50:44.227Z,28.40
2019-04-14T08:53:20.128Z,28.00
2019-04-14T08:55:58.963Z,26.10
2019-04-14T08:58:34.898Z,27.00
2019-04-14T09:01:14.170Z,27.50
2019-04-14T09:03:46.204Z,27.50
2019-04-14T09:06:16.219Z,25.50
2019-04-14T09:08:49.009Z,25.20
2019-04-14T09:11:30.769Z,21.60
2019-04-14T09:13:59.153Z,21.10
2019-04-14T09:16:27.712Z,24.10
2019-04-14T09:19:07.064Z,24.30
2019-04-14T09:21:26.141Z,24.00
2019-04-14T09:23:56.803Z,25.20
2019-04-14T09:26:24.605Z,23.50
2019-04-14T09:28:53.084Z,22.00
2019-04-14T09:31:21.560Z,22.50
2019-04-14T09:33:49.935Z,21.40
2019-04-14T09:36:18.291Z,20.70
2019-04-14T09:38:46.624Z,21.60
2019-04-14T09:41:15.039Z,25.00
2019-04-14T09:43:43.449Z,28.10
2019-04-14T09:46:11.858Z,28.80
2019-04-14T09:48:42.802Z,26.30
2019-04-14T09:51:10.458Z,23.70
2019-04-14T09:53:38.925Z,24.10
2019-04-14T09:56:07.297Z,25.60
2019-04-14T09:58:35.681Z,26.00
2019-04-14T10:01:04.066Z,26.80
2019-04-14T10:03:32.474Z,26.90
2019-04-14T10:06:00.915Z,26.30
2019-04-14T10:08:29.307Z,27.00
2019-04-14T10:10:57.689Z,27.70
2019-04-14T10:13:26.094Z,27.50
2019-04-14T10:15:54.473Z,27.80
2019-04-14T10:18:22.853Z,29.10
2019-04-14T10:20:51.232Z,30.00
2019-04-14T10:23:19.621Z,30.80
2019-04-14T10:25:48.061Z,32.30
2019-04-14T10:28:16.457Z,33.10
2019-04-14T10:30:44.995Z,33.80
2019-04-14T10:33:13.419Z,37.50
2019-04-14T10:35:41.851Z,37.70
2019-04-14T10:38:10.274Z,37.70
2019-04-14T10:40:38.630Z,37.90
2019-04-14T10:43:07.043Z,38.60
2019-04-14T10:45:35.718Z,37.80
2019-04-14T10:48:04.186Z,38.10
2019-04-14T10:50:32.624Z,38.70
2019-04-14T10:53:00.997Z,39.30
2019-04-14T10:55:29.409Z,39.30
2019-04-14T10:57:57.852Z,40.00
2019-04-14T11:00:26.213Z,40.00
2019-04-14T11:02:54.638Z,39.70
2019-04-14T11:05:24.134Z,39.70
2019-04-14T11:07:52.526Z,40.60
2019-04-14T11:10:20.925Z,41.30
2019-04-14T11:12:49.296Z,40.90
2019-04-14T11:15:17.838Z,40.90
2019-04-14T11:17:46.455Z,41.30
2019-04-14T11:20:14.844Z,40.40
2019-04-14T11:22:43.278Z,41.00
2019-04-14T11:25:11.687Z,41.90
2019-04-14T11:27:40.087Z,40.90
2019-04-14T11:30:10.263Z,41.40
2019-04-14T11:32:52.245Z,41.30
2019-04-14T11:35:22.253Z,41.90
2019-04-14T11:38:08.882Z,40.60
2019-04-14T11:40:47.889Z,40.00
2019-04-14T11:43:16.268Z,39.90
2019-04-14T11:45:44.906Z,39.70
2019-04-14T11:48:13.246Z,41.10
2019-04-14T11:50:41.583Z,42.80
2019-04-14T11:53:10.113Z,41.70
2019-04-14T11:55:38.514Z,41.80
2019-04-14T11:58:06.935Z,41.30
2019-04-14T12:00:37.003Z,42.40
2019-04-14T12:03:10.147Z,41.30
2019-04-14T12:05:40.202Z,41.10
2019-04-14T12:08:26.685Z,42.70
2019-04-14T12:10:55.160Z,43.20
2019-04-14T12:13:23.562Z,43.80
2019-04-14T12:15:51.968Z,44.30
2019-04-14T12:18:20.408Z,43.40
2019-04-14T12:20:48.866Z,44.20
2019-04-14T12:23:17.251Z,41.50
2019-04-14T12:25:45.649Z,42.40
2019-04-14T12:28:14.060Z,43.60
2019-04-14T12:30:42.466Z,44.60
2019-04-14T12:33:10.911Z,44.30
2019-04-14T12:35:39.274Z,43.60
2019-04-14T12:38:07.690Z,42.70
2019-04-14T12:40:36.933Z,42.80
2019-04-14T12:43:06.982Z,43.40
2019-04-14T12:45:45.841Z,42.90
2019-04-14T12:48:15.901Z,42.20
2019-04-14T12:50:57.809Z,41.80
2019-04-14T12:53:26.215Z,43.30
2019-04-14T12:55:54.625Z,44.30
2019-04-14T12:58:27.437Z,44.40
2019-04-14T13:00:57.441Z,44.50
2019-04-14T13:03:26.060Z,45.50
2019-04-14T13:05:54.557Z,46.00
2019-04-14T13:08:22.900Z,46.80
2019-04-14T13:10:51.317Z,47.00
2019-04-14T13:13:19.713Z,47.30
2019-04-14T13:15:48.214Z,47.00
2019-04-14T13:18:16.589Z,48.00
2019-04-14T13:20:45.018Z,47.10
2019-04-14T13:23:13.500Z,47.70
2019-04-14T13:25:41.969Z,48.30
2019-04-14T13:28:10.337Z,48.30
2019-04-14T13:30:40.389Z,48.60
2019-04-14T13:33:08.796Z,48.70
2019-04-14T13:35:37.212Z,48.30
2019-04-14T13:38:05.606Z,49.30
2019-04-14T13:40:34.013Z,49.50
2019-04-14T13:43:02.698Z,48.20
2019-04-14T13:45:31.043Z,47.20
2019-04-14T13:47:59.449Z,45.90
2019-04-14T13:50:27.824Z,45.70
2019-04-14T13:52:56.245Z,45.80
2019-04-14T13:55:24.897Z,45.70
2019-04-14T13:57:53.274Z,46.40
2019-04-14T14:00:21.958Z,46.30
2019-04-14T14:02:50.335Z,46.60
2019-04-14T14:05:18.898Z,46.80
2019-04-14T14:07:47.280Z,46.50
2019-04-14T14:10:15.702Z,47.00
2019-04-14T14:12:48.873Z,46.40
2019-04-14T14:15:35.269Z,46.30
2019-04-14T14:18:14.028Z,46.90
2019-04-14T14:21:00.676Z,47.40
2019-04-14T14:23:39.386Z,47.50
2019-04-14T14:26:15.583Z,47.50
2019-04-14T14:28:43.954Z,47.70
2019-04-14T14:31:12.369Z,47.60
2019-04-14T14:33:40.747Z,47.60
2019-04-14T14:36:09.152Z,47.10
2019-04-14T14:38:37.477Z,47.20
2019-04-14T14:41:07.798Z,47.20
2019-04-14T14:43:36.198Z,47.60
2019-04-14T14:46:06.228Z,47.80
2019-04-14T14:48:36.277Z,47.90
2019-04-14T14:51:12.069Z,48.50
2019-04-14T14:53:40.523Z,48.20
2019-04-14T14:56:09.134Z,48.40
2019-04-14T14:58:37.593Z,48.50
2019-04-14T15:01:07.189Z,48.20
2019-04-14T15:03:35.564Z,48.70
2019-04-14T15:06:04.233Z,49.00
2019-04-14T15:08:32.624Z,49.70
2019-04-14T15:11:04.075Z,50.00
2019-04-14T15:13:31.142Z,50.10
2019-04-14T15:15:59.581Z,50.20
2019-04-14T15:18:28.043Z,50.30
2019-04-14T15:20:56.487Z,50.70
2019-04-14T15:23:25.573Z,50.90
2019-04-14T15:25:54.038Z,51.30
2019-04-14T15:28:22.723Z,51.10
2019-04-14T15:30:51.153Z,50.90
2019-04-14T15:33:19.553Z,50.60
2019-04-14T15:35:47.926Z,50.80
2019-04-14T15:38:16.379Z,49.80
2019-04-14T15:40:44.756Z,49.20
2019-04-14T15:43:13.154Z,48.60
2019-04-14T15:45:41.633Z,49.10
2019-04-14T15:48:10.030Z,48.90
2019-04-14T15:50:38.429Z,49.40
2019-04-14T15:53:06.805Z,49.30
2019-04-14T15:55:35.217Z,49.20
2019-04-14T15:58:05.271Z,49.10
2019-04-14T16:00:44.293Z,48.40
2019-04-14T16:03:32.285Z,48.00
2019-04-14T16:06:02.337Z,48.60
2019-04-14T16:08:48.626Z,48.30
2019-04-14T16:11:24.417Z,48.60
2019-04-14T16:14:03.332Z,49.20
2019-04-14T16:16:51.703Z,49.60
2019-04-14T16:19:21.737Z,49.40
2019-04-14T16:21:50.119Z,49.40
2019-04-14T16:24:18.536Z,49.20
2019-04-14T16:26:48.585Z,49.40
2019-04-14T16:29:27.456Z,49.60
2019-04-14T16:32:03.166Z,50.20
2019-04-14T16:34:33.214Z,51.10
2019-04-14T16:37:01.620Z,51.30
2019-04-14T16:39:30.031Z,51.80
2019-04-14T16:41:58.435Z,52.30
2019-04-14T16:44:26.837Z,52.30
2019-04-14T16:46:55.246Z,52.60
2019-04-14T16:49:23.619Z,53.00
2019-04-14T16:51:59.717Z,54.00
2019-04-14T16:54:41.645Z,54.20
2019-04-14T16:57:14.434Z,54.50
2019-04-14T16:59:42.840Z,54.80
2019-04-14T17:02:11.512Z,55.50
2019-04-14T17:04:40.034Z,55.50
2019-04-14T17:07:08.560Z,56.00
2019-04-14T17:09:36.956Z,56.30
2019-04-14T17:12:05.364Z,56.70
2019-04-14T17:14:51.613Z,57.50
2019-04-14T17:17:21.678Z,58.10
2019-04-14T17:19:51.722Z,59.30
2019-04-14T17:22:38.439Z,61.50
2019-04-14T17:25:08.992Z,63.20
2019-04-14T17:27:39.031Z,64.00
2019-04-14T17:30:09.155Z,65.50
2019-04-14T17:32:42.115Z,66.70
2019-04-14T17:35:21.069Z,67.20
2019-04-14T17:37:54.011Z,68.10
2019-04-14T17:40:26.999Z,69.40
2019-04-14T17:42:59.995Z,69.80
2019-04-14T17:45:30.028Z,71.40
2019-04-14T17:48:09.241Z,73.00
2019-04-14T17:50:48.470Z,72.80
2019-04-14T17:53:18.520Z,73.70
2019-04-14T17:56:04.468Z,74.90
2019-04-14T17:58:37.482Z,75.30
2019-04-14T18:01:19.659Z,75.80
2019-04-14T18:03:49.696Z,76.20
2019-04-14T18:06:22.636Z,77.10
2019-04-14T18:09:01.814Z,77.20
2019-04-14T18:11:37.833Z,78.20
2019-04-14T18:14:26.118Z,77.80
2019-04-14T18:17:11.161Z,78.40
2019-04-14T18:19:44.225Z,79.50
2019-04-14T18:22:12.620Z,80.10
2019-04-14T18:24:42.614Z,81.50
2019-04-14T18:27:12.127Z,81.20
2019-04-14T18:29:48.317Z,81.70
2019-04-14T18:32:30.380Z,81.50
2019-04-14T18:35:03.274Z,82.40
2019-04-14T18:37:33.660Z,82.80
2019-04-14T18:40:15.443Z,83.00
2019-04-14T18:42:45.506Z,83.20
2019-04-14T18:45:21.746Z,83.30
2019-04-14T18:47:57.554Z,83.60
2019-04-14T18:50:33.381Z,83.50
2019-04-14T18:53:18.542Z,83.50
2019-04-14T18:55:48.598Z,83.70
2019-04-14T18:58:18.723Z,83.70
2019-04-14T19:01:04.990Z,83.30
2019-04-14T19:03:33.402Z,83.00
2019-04-14T19:06:01.865Z,83.20
2019-04-14T19:08:30.454Z,83.50
2019-04-14T19:11:15.451Z,83.90
2019-04-14T19:13:48.181Z,84.70
2019-04-14T19:16:18.264Z,83.20
2019-04-14T19:18:48.309Z,83.90
2019-04-14T19:21:18.350Z,84.20
2019-04-14T19:23:46.907Z,84.60
2019-04-14T19:26:15.455Z,85.10
2019-04-14T19:28:43.829Z,85.50
2019-04-14T19:31:12.214Z,85.00
2019-04-14T19:33:40.588Z,85.20
2019-04-14T19:36:08.983Z,86.00
2019-04-14T19:38:37.386Z,86.40
2019-04-14T19:41:06.006Z,86.10
2019-04-14T19:43:34.408Z,86.50
2019-04-14T19:46:02.809Z,86.70
2019-04-14T19:48:31.218Z,87.20
2019-04-14T19:50:59.601Z,86.80
2019-04-14T19:53:28.018Z,86.70
2019-04-14T19:55:56.401Z,86.90
2019-04-14T19:58:24.820Z,87.30
2019-04-14T20:00:53.211Z,87.30
2019-04-14T20:03:21.595Z,86.90
2019-04-14T20:05:49.985Z,86.70
2019-04-14T20:08:18.445Z,85.50
2019-04-14T20:10:46.901Z,80.80
2019-04-14T20:13:15.335Z,78.60
2019-04-14T20:15:48.554Z,78.10
2019-04-14T20:18:35.223Z,79.20
2019-04-14T20:21:08.277Z,74.40
2019-04-14T20:23:38.351Z,70.80
2019-04-14T20:26:17.459Z,66.30
2019-04-14T20:28:50.627Z,64.80
2019-04-14T20:31:38.850Z,63.50
2019-04-14T20:34:07.225Z,63.30
2019-04-14T20:36:35.679Z,63.00
2019-04-14T20:39:06.204Z,62.20
2019-04-14T20:41:34.686Z,62.00
2019-04-14T20:44:03.118Z,62.30
2019-04-14T20:46:31.579Z,61.10
2019-04-14T20:48:59.978Z,60.70
2019-04-14T20:51:28.505Z,60.00
2019-04-14T20:53:56.883Z,60.10
2019-04-14T20:56:25.295Z,60.00
2019-04-14T20:58:53.669Z,59.60
2019-04-14T21:01:22.555Z,59.70
2019-04-14T21:03:55.409Z,60.00
2019-04-14T21:06:37.564Z,59.80
2019-04-14T21:09:16.740Z,58.60
2019-04-14T21:11:55.858Z,58.10
2019-04-14T21:14:42.066Z,57.60
2019-04-14T21:17:12.105Z,57.60
2019-04-14T21:19:42.175Z,58.00
2019-04-14T21:22:21.188Z,57.70
2019-04-14T21:24:53.969Z,57.80
2019-04-14T21:27:39.096Z,58.10
2019-04-14T21:30:18.406Z,57.60
2019-04-14T21:32:56.846Z,57.60
2019-04-14T21:35:32.798Z,58.00
2019-04-14T21:38:02.855Z,58.10
2019-04-14T21:40:45.362Z,57.70
2019-04-14T21:43:13.834Z,57.80
2019-04-14T21:45:42.227Z,58.00
2019-04-14T21:48:10.637Z,58.40
2019-04-14T21:50:39.156Z,58.60
2019-04-14T21:53:07.729Z,59.10
2019-04-14T21:55:36.128Z,58.60
2019-04-14T21:58:12.171Z,58.30
2019-04-14T22:01:06.732Z,57.90
2019-04-14T22:03:53.349Z,57.80
2019-04-14T22:06:23.490Z,57.50
2019-04-14T22:08:53.599Z,57.70
2019-04-14T22:11:23.661Z,57.80
2019-04-14T22:13:52.075Z,57.80
2019-04-14T22:16:20.481Z,57.60
2019-04-14T22:18:49.352Z,58.30
2019-04-14T22:21:18.060Z,58.10
2019-04-14T22:23:59.937Z,58.00
2019-04-14T22:26:25.946Z,57.70
2019-04-14T22:28:47.750Z,57.70
2019-04-14T22:31:16.283Z,57.50
2019-04-14T22:33:44.673Z,57.80
2019-04-14T22:36:13.102Z,58.30
2019-04-14T22:38:41.521Z,58.80
2019-04-14T22:41:09.896Z,58.70
2019-04-14T22:43:38.336Z,58.90
2019-04-14T22:46:06.894Z,59.20
2019-04-14T22:48:35.219Z,59.90
2019-04-14T22:51:03.610Z,59.20
2019-04-14T22:53:32.104Z,59.30
2019-04-14T22:56:00.464Z,58.90
2019-04-14T22:58:28.909Z,58.70
2019-04-14T23:01:01.986Z,59.00
2019-04-14T23:03:45.773Z,58.80
2019-04-14T23:06:18.570Z,59.10
2019-04-14T23:08:57.715Z,59.60
2019-04-14T23:11:36.691Z,59.70
2019-04-14T23:14:09.804Z,59.80
2019-04-14T23:16:42.552Z,60.00
2019-04-14T23:19:15.327Z,60.20
2019-04-14T23:21:45.375Z,60.20
2019-04-14T23:24:15.381Z,60.00
2019-04-14T23:26:52.487Z,60.10
2019-04-14T23:29:13.824Z,60.20
2019-04-14T23:31:42.258Z,60.40
2019-04-14T23:34:10.709Z,60.80
2019-04-14T23:36:39.114Z,60.90
2019-04-14T23:39:09.242Z,61.20
2019-04-14T23:41:37.653Z,61.70
2019-04-14T23:44:06.016Z,61.90
2019-04-14T23:46:34.396Z,61.50
2019-04-14T23:49:02.887Z,62.10
2019-04-14T23:51:31.249Z,62.10
2019-04-14T23:53:59.576Z,62.30
2019-04-14T23:56:28.019Z,62.80
2019-04-14T23:58:56.574Z,62.00
